createdAt,value
2022-10-26T00:01:06.558Z,11.77
2022-10-26T00:03:34.327Z,10.97
2022-10-26T00:06:12.261Z,11.23
2022-10-26T00:08:38.834Z,12.40
2022-10-26T00:11:06.383Z,11.83
2022-10-26T00:13:33.683Z,10.90
2022-10-26T00:18:31.806Z,11.30
2022-10-26T00:21:04.226Z,11.80
2022-10-26T00:23:31.554Z,12.47
2022-10-26T00:25:58.489Z,11.67
2022-10-26T00:28:25.319Z,11.80
2022-10-26T00:30:52.008Z,10.77
2022-10-26T00:33:18.512Z,12.67
2022-10-26T00:35:49.231Z,11.57
2022-10-26T00:38:15.767Z,11.23
2022-10-26T00:40:42.424Z,11.60
2022-10-26T00:43:17.420Z,11.23
2022-10-26T00:45:45.081Z,12.30
2022-10-26T00:48:38.827Z,12.10
2022-10-26T00:51:40.246Z,11.63
2022-10-26T00:54:11.934Z,12.17
2022-10-26T00:56:39.755Z,11.97
2022-10-26T00:59:09.915Z,11.70
2022-10-26T01:01:39.998Z,11.77
2022-10-26T01:04:06.963Z,11.60
2022-10-26T01:06:36.639Z,11.30
2022-10-26T01:09:04.348Z,11.77
2022-10-26T01:11:30.958Z,12.20
2022-10-26T01:13:59.734Z,11.10
2022-10-26T01:16:51.615Z,11.13
2022-10-26T01:19:23.888Z,11.10
2022-10-26T01:22:02.287Z,10.67
2022-10-26T01:24:39.195Z,10.57
2022-10-26T01:27:25.209Z,10.53
2022-10-26T01:30:16.255Z,9.97
2022-10-26T01:32:48.493Z,9.23
2022-10-26T01:35:29.230Z,9.93
2022-10-26T01:38:27.290Z,9.73
2022-10-26T01:41:12.025Z,10.23
2022-10-26T01:43:42.696Z,9.47
2022-10-26T01:46:11.584Z,9.43
2022-10-26T01:48:41.252Z,9.40
2022-10-26T01:51:11.327Z,9.67
2022-10-26T01:53:44.822Z,9.70
2022-10-26T01:56:19.314Z,10.40
2022-10-26T01:59:07.395Z,10.00
2022-10-26T02:02:00.442Z,10.07
2022-10-26T02:04:48.371Z,10.50
2022-10-26T02:07:27.343Z,11.10
2022-10-26T02:10:08.813Z,11.37
2022-10-26T02:12:56.363Z,11.10
2022-10-26T02:15:40.615Z,11.00
2022-10-26T02:18:33.187Z,11.20
2022-10-26T02:21:08.754Z,11.10
2022-10-26T02:23:38.893Z,11.57
2022-10-26T02:26:08.866Z,12.33
2022-10-26T02:28:42.896Z,11.47
2022-10-26T02:31:12.355Z,11.73
2022-10-26T02:33:41.793Z,11.83
2022-10-26T02:36:11.628Z,10.83
2022-10-26T02:38:41.051Z,11.07
2022-10-26T02:41:08.771Z,10.63
2022-10-26T02:43:41.722Z,11.03
2022-10-26T02:46:15.335Z,11.13
2022-10-26T02:48:41.916Z,11.43
2022-10-26T02:51:29.504Z,10.70
2022-10-26T02:54:06.105Z,11.30
2022-10-26T02:56:51.617Z,12.30
2022-10-26T02:59:19.960Z,11.50
2022-10-26T03:01:47.409Z,12.30
2022-10-26T03:04:14.192Z,12.57
2022-10-26T03:06:40.766Z,13.63
2022-10-26T03:09:07.250Z,13.67
2022-10-26T03:11:33.759Z,13.90
2022-10-26T03:14:00.267Z,12.93
2022-10-26T03:16:27.064Z,13.23
2022-10-26T03:18:53.533Z,12.27
2022-10-26T03:21:20.060Z,13.47
2022-10-26T03:23:47.910Z,13.57
2022-10-26T03:26:14.471Z,12.97
2022-10-26T03:28:40.927Z,14.47
2022-10-26T03:31:07.658Z,15.10
2022-10-26T03:33:34.153Z,14.23
2022-10-26T03:36:00.929Z,14.10
2022-10-26T03:38:27.418Z,14.07
2022-10-26T03:40:53.966Z,14.40
2022-10-26T03:43:20.487Z,15.53
2022-10-26T03:45:47.060Z,14.07
2022-10-26T03:48:13.955Z,15.07
2022-10-26T03:50:40.537Z,14.77
2022-10-26T03:53:07.301Z,14.20
2022-10-26T03:55:33.841Z,13.63
2022-10-26T03:58:00.326Z,14.37
2022-10-26T04:00:26.841Z,14.10
2022-10-26T04:02:56.308Z,13.77
2022-10-26T04:05:23.878Z,13.83
2022-10-26T04:07:58.732Z,13.43
2022-10-26T04:10:26.844Z,13.23
2022-10-26T04:12:54.544Z,13.30
2022-10-26T04:15:21.942Z,12.87
2022-10-26T04:17:48.898Z,13.10
2022-10-26T04:20:15.815Z,13.63
2022-10-26T04:22:42.337Z,13.17
2022-10-26T04:25:10.502Z,13.20
2022-10-26T04:27:36.993Z,12.83
2022-10-26T04:30:06.045Z,12.77
2022-10-26T04:32:32.648Z,13.10
2022-10-26T04:34:59.135Z,12.43
2022-10-26T04:37:25.688Z,12.93
2022-10-26T04:39:52.236Z,12.30
2022-10-26T04:42:18.822Z,12.47
2022-10-26T04:44:45.306Z,12.70
2022-10-26T04:47:11.807Z,12.23
2022-10-26T04:49:38.323Z,11.90
2022-10-26T04:52:06.044Z,13.00
2022-10-26T04:54:32.519Z,12.60
2022-10-26T04:56:59.016Z,11.73
2022-10-26T04:59:25.522Z,11.90
2022-10-26T05:01:52.142Z,12.23
2022-10-26T05:04:18.709Z,12.20
2022-10-26T05:06:45.262Z,12.13
2022-10-26T05:09:11.779Z,12.33
2022-10-26T05:11:38.287Z,12.80
2022-10-26T05:14:04.934Z,12.10
2022-10-26T05:16:31.431Z,11.57
2022-10-26T05:18:57.904Z,11.23
2022-10-26T05:21:24.395Z,11.70
2022-10-26T05:23:55.630Z,10.63
2022-10-26T05:26:23.863Z,10.93
2022-10-26T05:28:51.663Z,11.40
2022-10-26T05:31:18.189Z,10.80
2022-10-26T05:33:44.694Z,11.33
2022-10-26T05:36:11.208Z,11.23
2022-10-26T05:38:37.693Z,10.70
2022-10-26T05:41:04.380Z,11.00
2022-10-26T05:43:30.930Z,12.10
2022-10-26T05:45:57.516Z,12.70
2022-10-26T05:48:24.030Z,12.57
2022-10-26T05:50:50.567Z,11.77
2022-10-26T05:53:17.145Z,12.67
2022-10-26T05:55:44.036Z,12.43
2022-10-26T05:58:15.332Z,11.07
2022-10-26T06:00:54.926Z,11.53
2022-10-26T06:06:00.731Z,10.53
2022-10-26T06:08:29.881Z,10.27
2022-10-26T06:10:59.499Z,11.00
2022-10-26T06:13:26.437Z,9.67
2022-10-26T06:16:08.005Z,8.80
2022-10-26T06:18:49.732Z,8.23
2022-10-26T06:21:37.795Z,7.50
2022-10-26T06:24:10.134Z,7.90
2022-10-26T06:26:42.862Z,7.37
2022-10-26T06:29:44.862Z,7.67
2022-10-26T06:32:12.024Z,7.10
2022-10-26T06:34:45.301Z,7.90
2022-10-26T06:37:13.147Z,7.63
2022-10-26T06:39:44.538Z,7.57
2022-10-26T06:42:11.954Z,7.50
2022-10-26T06:44:38.760Z,7.73
2022-10-26T06:47:49.926Z,7.10
2022-10-26T06:50:43.206Z,8.13
2022-10-26T06:53:28.375Z,8.07
2022-10-26T06:55:57.537Z,9.17
2022-10-26T06:58:29.182Z,9.10
2022-10-26T07:00:57.143Z,9.03
2022-10-26T07:03:23.753Z,9.87
2022-10-26T07:05:50.484Z,11.07
2022-10-26T07:08:17.136Z,10.40
2022-10-26T07:10:43.746Z,10.83
2022-10-26T07:13:10.928Z,10.73
2022-10-26T07:15:39.118Z,11.50
2022-10-26T07:18:07.316Z,11.97
2022-10-26T07:20:41.579Z,11.03
2022-10-26T07:23:12.320Z,12.23
2022-10-26T07:25:40.548Z,12.67
2022-10-26T07:28:10.377Z,12.87
2022-10-26T07:30:38.623Z,12.97
2022-10-26T07:33:11.629Z,13.47
2022-10-26T07:35:38.202Z,13.60
2022-10-26T07:38:05.166Z,15.87
2022-10-26T07:40:32.410Z,15.43
2022-10-26T07:43:00.663Z,15.97
2022-10-26T07:45:29.304Z,17.27
2022-10-26T07:47:56.530Z,17.10
2022-10-26T07:50:24.180Z,17.23
2022-10-26T07:52:51.157Z,16.57
2022-10-26T07:55:18.023Z,16.60
2022-10-26T07:57:44.814Z,16.67
2022-10-26T08:00:12.245Z,16.80
2022-10-26T08:02:38.764Z,17.33
2022-10-26T08:05:05.895Z,17.20
2022-10-26T08:07:32.410Z,17.57
2022-10-26T08:09:58.947Z,17.07
2022-10-26T08:12:25.485Z,17.77
2022-10-26T08:14:51.978Z,16.47
2022-10-26T08:17:18.484Z,18.00
2022-10-26T08:19:47.661Z,16.20
2022-10-26T08:24:46.910Z,17.20
2022-10-26T08:27:14.966Z,17.20
2022-10-26T08:29:42.288Z,15.83
2022-10-26T08:32:08.982Z,16.23
2022-10-26T08:34:35.506Z,15.47
2022-10-26T08:37:02.071Z,15.73
2022-10-26T08:39:30.694Z,14.83
2022-10-26T08:42:19.515Z,15.27
2022-10-26T08:44:58.336Z,14.53
2022-10-26T08:47:34.305Z,14.70
2022-10-26T08:50:03.778Z,14.00
2022-10-26T08:52:40.280Z,13.67
2022-10-26T08:55:15.541Z,12.93
2022-10-26T08:57:42.891Z,12.30
2022-10-26T09:00:15.208Z,11.87
2022-10-26T09:02:41.671Z,11.37
2022-10-26T09:05:34.783Z,10.90
2022-10-26T09:08:26.586Z,11.37
2022-10-26T09:11:15.437Z,10.10
2022-10-26T09:14:14.369Z,9.57
2022-10-26T09:17:08.554Z,9.63
2022-10-26T09:20:06.500Z,9.07
2022-10-26T09:22:38.849Z,8.63
2022-10-26T09:25:23.425Z,9.23
2022-10-26T09:28:02.262Z,8.30
2022-10-26T09:30:30.381Z,8.40
2022-10-26T09:33:00.501Z,7.97
2022-10-26T09:35:42.466Z,7.47
2022-10-26T09:38:24.369Z,6.53
2022-10-26T09:41:10.662Z,7.30
2022-10-26T09:43:58.248Z,5.83
2022-10-26T09:46:59.974Z,5.87
2022-10-26T09:49:53.464Z,5.70
2022-10-26T09:52:19.990Z,5.73
2022-10-26T09:54:46.540Z,5.57
2022-10-26T09:57:16.330Z,5.77
2022-10-26T09:59:43.311Z,5.60
2022-10-26T10:02:44.950Z,4.90
2022-10-26T10:05:53.263Z,4.90
2022-10-26T10:08:23.993Z,4.80
2022-10-26T10:11:07.408Z,5.10
2022-10-26T10:13:36.962Z,4.57
2022-10-26T10:16:23.353Z,4.50
2022-10-26T10:18:55.928Z,4.57
2022-10-26T10:21:45.191Z,4.83
2022-10-26T10:24:32.097Z,4.60
2022-10-26T10:27:18.431Z,3.87
2022-10-26T10:29:50.768Z,4.13
2022-10-26T10:32:20.745Z,3.90
2022-10-26T10:34:52.294Z,4.23
2022-10-26T10:37:24.919Z,4.00
2022-10-26T10:39:56.084Z,3.93
2022-10-26T10:42:27.762Z,3.90
2022-10-26T10:44:55.871Z,4.20
2022-10-26T10:50:20.102Z,3.87
2022-10-26T10:52:47.458Z,4.13
2022-10-26T10:55:14.165Z,4.13
2022-10-26T10:58:16.691Z,3.70
2022-10-26T11:00:48.328Z,3.90
2022-10-26T11:03:36.390Z,3.80
2022-10-26T11:06:22.578Z,3.90
2022-10-26T11:09:02.266Z,3.73
2022-10-26T11:11:47.461Z,3.80
2022-10-26T11:14:27.928Z,3.70
2022-10-26T11:17:06.514Z,3.27
2022-10-26T11:19:42.141Z,3.53
2022-10-26T11:22:14.389Z,3.63
2022-10-26T11:25:03.196Z,3.17
2022-10-26T11:27:34.223Z,3.30
2022-10-26T11:30:13.786Z,3.40
2022-10-26T11:32:54.872Z,2.77
2022-10-26T11:35:32.670Z,2.97
2022-10-26T11:38:10.289Z,3.73
2022-10-26T11:40:53.743Z,3.10
2022-10-26T11:43:41.481Z,3.17
2022-10-26T11:46:07.962Z,2.77
2022-10-26T11:48:43.384Z,3.20
2022-10-26T11:51:32.556Z,3.00
2022-10-26T11:54:04.821Z,2.80
2022-10-26T11:56:36.745Z,2.77
2022-10-26T11:59:03.500Z,2.70
2022-10-26T12:01:30.961Z,2.73
2022-10-26T12:03:59.860Z,2.70
2022-10-26T12:06:32.071Z,2.60
2022-10-26T12:09:20.656Z,2.43
2022-10-26T12:12:12.790Z,2.90
2022-10-26T12:15:00.708Z,2.80
2022-10-26T12:17:38.900Z,2.70
2022-10-26T12:20:24.310Z,2.60
2022-10-26T12:22:51.307Z,2.37
2022-10-26T12:25:21.073Z,2.53
2022-10-26T12:30:18.877Z,2.90
2022-10-26T12:32:45.392Z,2.20
2022-10-26T12:35:37.894Z,2.77
2022-10-26T12:38:40.030Z,2.40
2022-10-26T12:41:06.612Z,2.53
2022-10-26T12:43:36.020Z,2.60
2022-10-26T12:46:14.485Z,2.20
2022-10-26T12:48:44.600Z,2.20
2022-10-26T12:51:24.653Z,2.00
2022-10-26T12:54:02.927Z,1.97
2022-10-26T12:56:50.750Z,1.80
2022-10-26T12:59:38.853Z,1.70
2022-10-26T13:02:43.089Z,1.50
2022-10-26T13:05:48.158Z,2.20
2022-10-26T13:08:15.336Z,1.70
2022-10-26T13:11:01.849Z,1.80
2022-10-26T13:13:31.333Z,2.00
2022-10-26T13:15:59.721Z,1.90
2022-10-26T13:18:26.778Z,1.63
2022-10-26T13:21:09.897Z,2.10
2022-10-26T13:23:40.136Z,2.03
2022-10-26T13:26:21.586Z,1.93
2022-10-26T13:28:52.717Z,1.93
2022-10-26T13:31:41.652Z,1.90
2022-10-26T13:34:17.797Z,1.73
2022-10-26T13:36:53.233Z,1.60
2022-10-26T13:39:24.286Z,1.60
2022-10-26T13:41:53.800Z,1.90
2022-10-26T13:44:28.361Z,1.73
2022-10-26T13:47:01.305Z,1.97
2022-10-26T13:49:39.234Z,1.70
2022-10-26T13:52:12.404Z,1.90
2022-10-26T13:54:55.244Z,1.73
2022-10-26T13:57:32.747Z,1.90
2022-10-26T14:00:03.990Z,1.50
2022-10-26T14:02:31.025Z,1.87
2022-10-26T14:05:02.789Z,1.60
2022-10-26T14:10:35.652Z,1.93
2022-10-26T14:13:07.650Z,1.90
2022-10-26T14:15:35.952Z,1.87
2022-10-26T14:18:04.369Z,1.63
2022-10-26T14:20:32.206Z,2.00
2022-10-26T14:22:58.781Z,2.00
2022-10-26T14:25:42.142Z,2.10
2022-10-26T14:28:27.825Z,1.43
2022-10-26T14:30:54.415Z,1.93
2022-10-26T14:33:27.518Z,1.67
2022-10-26T14:35:54.896Z,1.60
2022-10-26T14:38:35.638Z,1.57
2022-10-26T14:41:02.466Z,1.60
2022-10-26T14:43:29.134Z,1.90
2022-10-26T14:45:57.333Z,1.43
2022-10-26T14:48:25.607Z,1.73
2022-10-26T14:51:19.664Z,1.50
2022-10-26T14:53:51.891Z,1.80
2022-10-26T14:56:23.379Z,1.57
2022-10-26T14:58:51.157Z,1.37
2022-10-26T15:01:23.859Z,1.30
2022-10-26T15:03:55.400Z,1.50
2022-10-26T15:06:34.908Z,1.80
2022-10-26T15:09:05.149Z,1.60
2022-10-26T15:11:33.774Z,1.90
2022-10-26T15:14:01.321Z,1.50
2022-10-26T15:16:34.183Z,1.60
2022-10-26T15:19:15.622Z,1.63
2022-10-26T15:21:47.453Z,1.67
2022-10-26T15:24:39.365Z,1.50
2022-10-26T15:27:16.018Z,1.77
2022-10-26T15:29:45.630Z,1.70
2022-10-26T15:32:19.771Z,1.80
2022-10-26T15:35:20.275Z,1.80
2022-10-26T15:37:47.943Z,1.67
2022-10-26T15:40:14.947Z,2.10
2022-10-26T15:42:45.298Z,1.73
2022-10-26T15:45:30.300Z,2.23
2022-10-26T15:47:58.156Z,2.00
2022-10-26T15:50:27.479Z,2.07
2022-10-26T15:53:02.955Z,1.70
2022-10-26T15:55:30.943Z,1.47
2022-10-26T15:57:57.491Z,2.00
2022-10-26T16:00:24.033Z,2.10
2022-10-26T16:02:50.644Z,1.87
2022-10-26T16:05:17.486Z,2.17
2022-10-26T16:07:47.060Z,1.50
2022-10-26T16:10:22.427Z,2.17
2022-10-26T16:12:50.428Z,2.07
2022-10-26T16:15:36.693Z,1.80
2022-10-26T16:18:03.268Z,2.23
2022-10-26T16:20:30.076Z,2.30
2022-10-26T16:22:57.053Z,2.13
2022-10-26T16:25:25.443Z,2.00
2022-10-26T16:27:54.259Z,1.70
2022-10-26T16:30:24.699Z,2.03
2022-10-26T16:32:53.749Z,2.20
2022-10-26T16:35:20.372Z,2.07
2022-10-26T16:37:46.895Z,2.37
2022-10-26T16:40:13.807Z,2.10
2022-10-26T16:42:44.743Z,2.50
2022-10-26T16:45:15.286Z,2.30
2022-10-26T16:47:41.987Z,2.23
2022-10-26T16:50:10.879Z,2.10
2022-10-26T16:52:38.366Z,2.20
2022-10-26T16:55:06.276Z,2.40
2022-10-26T16:57:33.293Z,2.23
2022-10-26T16:59:59.764Z,2.30
2022-10-26T17:02:26.347Z,2.77
2022-10-26T17:04:52.915Z,2.20
2022-10-26T17:07:19.435Z,3.00
2022-10-26T17:09:45.918Z,2.47
2022-10-26T17:12:12.466Z,2.60
2022-10-26T17:14:38.969Z,2.63
2022-10-26T17:17:05.453Z,2.30
2022-10-26T17:19:31.977Z,2.90
2022-10-26T17:21:58.493Z,2.87
2022-10-26T17:24:25.225Z,2.67
2022-10-26T17:26:52.026Z,2.97
2022-10-26T17:29:18.689Z,2.80
2022-10-26T17:31:45.241Z,2.80
2022-10-26T17:34:11.761Z,2.70
2022-10-26T17:36:38.364Z,2.80
2022-10-26T17:39:05.104Z,2.67
2022-10-26T17:41:31.588Z,2.90
2022-10-26T17:43:58.334Z,3.23
2022-10-26T17:46:26.858Z,2.50
2022-10-26T17:48:58.025Z,3.30
2022-10-26T17:51:26.153Z,3.20
2022-10-26T17:53:53.400Z,2.93
2022-10-26T17:56:22.396Z,3.10
2022-10-26T17:59:00.187Z,2.90
2022-10-26T18:01:28.229Z,3.40
2022-10-26T18:03:55.622Z,3.07
2022-10-26T18:06:22.283Z,3.20
2022-10-26T18:08:48.897Z,3.17
2022-10-26T18:11:26.107Z,3.20
2022-10-26T18:13:54.167Z,3.20
2022-10-26T18:16:24.483Z,3.20
2022-10-26T18:19:04.865Z,3.07
2022-10-26T18:21:37.730Z,3.43
2022-10-26T18:24:05.247Z,3.43
2022-10-26T18:26:32.174Z,3.70
2022-10-26T18:29:00.402Z,4.30
2022-10-26T18:31:28.695Z,3.80
2022-10-26T18:33:57.076Z,4.33
2022-10-26T18:36:24.204Z,4.00
2022-10-26T18:38:51.172Z,4.47
2022-10-26T18:41:19.649Z,4.40
2022-10-26T18:43:51.011Z,3.97
2022-10-26T18:46:23.384Z,3.63
2022-10-26T18:48:51.436Z,4.07
2022-10-26T18:51:21.367Z,3.97
2022-10-26T18:53:48.624Z,3.83
2022-10-26T18:56:20.279Z,3.93
2022-10-26T18:58:49.336Z,3.83
2022-10-26T19:01:21.511Z,3.73
2022-10-26T19:03:52.993Z,3.60
2022-10-26T19:06:22.821Z,3.77
2022-10-26T19:08:49.303Z,4.13
2022-10-26T19:11:18.037Z,3.83
2022-10-26T19:13:45.107Z,3.93
2022-10-26T19:16:33.499Z,3.93
2022-10-26T19:19:10.654Z,4.00
2022-10-26T19:21:37.332Z,4.13
2022-10-26T19:24:04.109Z,3.73
2022-10-26T19:26:37.805Z,4.10
2022-10-26T19:29:07.285Z,4.03
2022-10-26T19:31:35.965Z,4.10
2022-10-26T19:34:03.491Z,3.90
2022-10-26T19:36:30.775Z,4.00
2022-10-26T19:38:57.733Z,4.17
2022-10-26T19:41:26.693Z,4.83
2022-10-26T19:43:54.585Z,4.10
2022-10-26T19:46:24.209Z,4.30
2022-10-26T19:49:01.445Z,4.20
2022-10-26T19:51:30.087Z,4.03
2022-10-26T19:54:02.213Z,4.60
2022-10-26T19:56:30.511Z,4.27
2022-10-26T19:58:57.170Z,4.50
2022-10-26T20:01:23.817Z,4.50
2022-10-26T20:03:50.456Z,4.30
2022-10-26T20:06:18.381Z,4.03
2022-10-26T20:08:47.181Z,4.23
2022-10-26T20:11:16.211Z,4.10
2022-10-26T20:13:44.409Z,4.40
2022-10-26T20:16:12.168Z,3.97
2022-10-26T20:18:43.937Z,4.73
2022-10-26T20:21:14.934Z,4.70
2022-10-26T20:23:42.654Z,4.10
2022-10-26T20:26:10.962Z,4.40
2022-10-26T20:28:39.228Z,4.90
2022-10-26T20:31:05.871Z,4.50
2022-10-26T20:33:32.419Z,4.30
2022-10-26T20:35:59.425Z,4.70
2022-10-26T20:38:26.887Z,4.93
2022-10-26T20:40:58.614Z,4.77
2022-10-26T20:43:28.309Z,4.60
2022-10-26T20:45:56.196Z,5.00
2022-10-26T20:48:23.299Z,4.97
2022-10-26T20:51:07.861Z,4.83
2022-10-26T20:53:49.179Z,4.87
2022-10-26T20:56:22.586Z,4.90
2022-10-26T20:59:00.935Z,5.30
2022-10-26T21:01:29.922Z,4.87
2022-10-26T21:03:58.249Z,5.03
2022-10-26T21:06:26.189Z,5.30
2022-10-26T21:08:54.977Z,5.53
2022-10-26T21:11:23.667Z,5.13
2022-10-26T21:13:52.373Z,5.60
2022-10-26T21:16:19.082Z,5.40
2022-10-26T21:18:45.861Z,5.30
2022-10-26T21:21:12.833Z,4.83
2022-10-26T21:23:41.153Z,5.27
2022-10-26T21:26:08.886Z,5.40
2022-10-26T21:28:47.016Z,5.63
2022-10-26T21:31:16.415Z,5.67
2022-10-26T21:33:43.620Z,6.50
2022-10-26T21:36:12.513Z,6.17
2022-10-26T21:38:40.698Z,6.30
2022-10-26T21:41:10.002Z,5.90
2022-10-26T21:43:39.689Z,6.20
2022-10-26T21:46:07.704Z,6.20
2022-10-26T21:48:34.453Z,7.30
2022-10-26T21:51:02.498Z,6.80
2022-10-26T21:53:29.788Z,7.37
2022-10-26T21:56:03.416Z,7.70
2022-10-26T21:58:30.614Z,7.63
2022-10-26T22:01:10.374Z,7.13
2022-10-26T22:03:37.769Z,6.87
2022-10-26T22:06:05.550Z,7.40
2022-10-26T22:08:32.227Z,7.33
2022-10-26T22:10:58.983Z,7.90
2022-10-26T22:13:25.555Z,8.00
2022-10-26T22:16:09.870Z,8.77
2022-10-26T22:18:37.792Z,8.03
2022-10-26T22:21:05.106Z,8.40
2022-10-26T22:23:36.971Z,7.67
2022-10-26T22:26:10.063Z,8.07
2022-10-26T22:28:41.595Z,9.07
2022-10-26T22:31:14.971Z,8.57
2022-10-26T22:33:42.523Z,9.03
2022-10-26T22:36:11.364Z,8.97
2022-10-26T22:38:38.050Z,9.10
2022-10-26T22:41:05.006Z,9.70
2022-10-26T22:43:31.569Z,9.47
2022-10-26T22:46:10.322Z,9.50
2022-10-26T22:48:37.634Z,10.57
2022-10-26T22:51:25.205Z,11.20
2022-10-26T22:53:53.664Z,10.07
2022-10-26T22:56:20.414Z,11.30
2022-10-26T22:58:46.983Z,10.27
2022-10-26T23:01:16.706Z,11.13
2022-10-26T23:03:43.552Z,10.63
2022-10-26T23:06:12.862Z,11.30
2022-10-26T23:08:39.602Z,11.33
2022-10-26T23:11:08.626Z,12.07
2022-10-26T23:13:35.230Z,11.87
2022-10-26T23:16:06.953Z,12.17
2022-10-26T23:18:34.528Z,12.03
2022-10-26T23:21:01.209Z,12.90
2022-10-26T23:23:27.877Z,13.27
2022-10-26T23:25:54.498Z,13.47
2022-10-26T23:28:21.047Z,12.80
2022-10-26T23:30:47.925Z,13.70
2022-10-26T23:33:14.448Z,13.40
2022-10-26T23:35:41.083Z,13.50
2022-10-26T23:40:40.463Z,12.53
2022-10-26T23:43:06.968Z,12.60
2022-10-26T23:45:33.440Z,12.67
2022-10-26T23:47:59.924Z,13.30
2022-10-26T23:50:26.403Z,13.50
2022-10-26T23:52:52.904Z,12.77
2022-10-26T23:55:19.397Z,14.10
2022-10-26T23:57:45.910Z,13.43
